createdAt,value
2019-05-06T00:01:59.955Z,99.90
2019-05-06T00:04:26.302Z,99.90
2019-05-06T00:06:54.587Z,99.90
2019-05-06T00:09:20.870Z,99.90
2019-05-06T00:11:47.258Z,99.90
2019-05-06T00:14:14.153Z,99.90
2019-05-06T00:16:40.546Z,99.90
2019-05-06T00:19:06.936Z,99.90
2019-05-06T00:21:35.305Z,99.90
2019-05-06T00:24:03.751Z,99.90
2019-05-06T00:26:44.855Z,99.90
2019-05-06T00:29:13.988Z,99.90
2019-05-06T00:31:43.890Z,99.90
2019-05-06T00:34:09.721Z,99.90
2019-05-06T00:36:36.105Z,99.90
2019-05-06T00:39:09.371Z,99.90
2019-05-06T00:41:36.574Z,99.90
2019-05-06T00:44:04.025Z,99.90
2019-05-06T00:46:30.525Z,99.90
2019-05-06T00:48:56.855Z,99.90
2019-05-06T00:51:24.167Z,99.90
2019-05-06T00:53:54.378Z,99.90
2019-05-06T00:56:21.773Z,99.90
2019-05-06T00:58:48.113Z,99.90
2019-05-06T01:01:25.831Z,99.90
2019-05-06T01:03:44.232Z,99.90
2019-05-06T01:06:10.751Z,99.90
2019-05-06T01:08:37.143Z,99.90
2019-05-06T01:11:04.740Z,99.90
2019-05-06T01:13:38.814Z,99.90
2019-05-06T01:16:05.128Z,99.90
2019-05-06T01:18:31.507Z,99.90
2019-05-06T01:21:09.584Z,99.90
2019-05-06T01:23:37.720Z,99.90
2019-05-06T01:26:04.284Z,99.90
2019-05-06T01:28:30.761Z,99.90
2019-05-06T01:30:57.168Z,99.90
2019-05-06T01:33:24.162Z,99.90
2019-05-06T01:35:50.637Z,99.90
2019-05-06T01:38:30.940Z,99.90
2019-05-06T01:41:03.863Z,99.90
2019-05-06T01:43:35.008Z,99.90
2019-05-06T01:46:01.400Z,99.90
2019-05-06T01:48:46.188Z,99.90
2019-05-06T01:51:14.262Z,99.90
2019-05-06T01:53:40.833Z,99.90
2019-05-06T01:56:07.197Z,99.90
2019-05-06T01:58:33.636Z,99.90
2019-05-06T02:00:59.981Z,99.90
2019-05-06T02:03:26.342Z,99.90
2019-05-06T02:05:53.930Z,99.90
2019-05-06T02:08:20.463Z,99.90
2019-05-06T02:10:46.840Z,99.90
2019-05-06T02:13:14.223Z,99.90
2019-05-06T02:15:40.657Z,99.90
2019-05-06T02:18:07.056Z,99.90
2019-05-06T02:20:34.992Z,99.90
2019-05-06T02:23:04.188Z,99.90
2019-05-06T02:25:34.164Z,99.90
2019-05-06T02:28:00.611Z,99.90
2019-05-06T02:30:28.883Z,99.90
2019-05-06T02:32:57.191Z,99.90
2019-05-06T02:35:26.501Z,99.90
2019-05-06T02:37:54.990Z,99.90
2019-05-06T02:40:25.508Z,99.90
2019-05-06T02:42:54.707Z,99.90
2019-05-06T02:45:23.551Z,99.90
2019-05-06T02:48:09.725Z,99.90
2019-05-06T02:50:47.045Z,99.90
2019-05-06T02:53:15.404Z,99.90
2019-05-06T02:55:43.101Z,99.90
2019-05-06T02:58:09.554Z,99.90
2019-05-06T03:00:35.957Z,99.90
2019-05-06T03:03:02.886Z,99.90
2019-05-06T03:05:29.472Z,99.90
2019-05-06T03:07:57.565Z,99.90
2019-05-06T03:10:24.878Z,99.90
2019-05-06T03:12:53.736Z,99.90
2019-05-06T03:15:19.587Z,99.90
2019-05-06T03:17:45.980Z,99.90
2019-05-06T03:20:17.995Z,99.90
2019-05-06T03:22:49.101Z,99.90
2019-05-06T03:25:17.354Z,99.90
2019-05-06T03:27:47.003Z,99.90
2019-05-06T03:30:16.688Z,99.90
2019-05-06T03:33:14.183Z,99.90
2019-05-06T03:35:27.516Z,99.90
2019-05-06T03:37:37.268Z,99.90
2019-05-06T03:40:04.451Z,99.90
2019-05-06T03:42:33.451Z,99.90
2019-05-06T03:45:03.935Z,99.90
2019-05-06T03:47:43.610Z,99.90
2019-05-06T03:50:13.111Z,99.90
2019-05-06T03:52:38.389Z,99.90
2019-05-06T03:55:05.067Z,99.90
2019-05-06T03:57:35.379Z,99.90
2019-05-06T03:59:59.945Z,99.90
2019-05-06T04:02:26.901Z,99.90
2019-05-06T04:04:56.476Z,99.90
2019-05-06T04:07:23.454Z,99.90
2019-05-06T04:09:53.179Z,99.90
2019-05-06T04:12:18.514Z,99.90
2019-05-06T04:14:44.869Z,99.90
2019-05-06T04:17:16.407Z,99.90
2019-05-06T04:19:44.794Z,99.90
2019-05-06T04:22:19.340Z,99.90
2019-05-06T04:24:56.205Z,99.90
2019-05-06T04:27:44.352Z,99.90
2019-05-06T04:30:13.507Z,99.90
2019-05-06T04:32:39.689Z,99.90
2019-05-06T04:35:06.288Z,99.90
2019-05-06T04:37:33.822Z,99.90
2019-05-06T04:40:04.208Z,99.90
2019-05-06T04:42:28.833Z,99.90
2019-05-06T04:44:55.282Z,99.90
2019-05-06T04:47:24.178Z,99.90
2019-05-06T04:49:53.219Z,99.90
2019-05-06T04:52:22.811Z,99.90
2019-05-06T04:54:48.531Z,99.90
2019-05-06T04:57:14.893Z,99.90
2019-05-06T04:59:43.218Z,99.90
2019-05-06T05:02:09.405Z,99.90
2019-05-06T05:04:36.845Z,99.90
2019-05-06T05:07:03.635Z,99.90
2019-05-06T05:09:32.412Z,99.90
2019-05-06T05:12:13.383Z,99.90
2019-05-06T05:14:44.412Z,99.90
2019-05-06T05:17:27.993Z,99.90
2019-05-06T05:19:54.380Z,99.90
2019-05-06T05:22:21.923Z,99.90
2019-05-06T05:24:48.471Z,99.90
2019-05-06T05:27:14.815Z,99.90
2019-05-06T05:29:42.382Z,99.90
2019-05-06T05:32:08.868Z,99.90
2019-05-06T05:34:39.907Z,99.90
2019-05-06T05:37:03.481Z,99.90
2019-05-06T05:39:29.916Z,99.90
2019-05-06T05:41:58.215Z,99.90
2019-05-06T05:44:35.094Z,99.90
2019-05-06T05:47:03.355Z,99.90
2019-05-06T05:49:34.607Z,99.90
2019-05-06T05:52:03.327Z,99.90
2019-05-06T05:54:29.499Z,99.90
2019-05-06T05:56:55.972Z,99.90
2019-05-06T05:59:23.228Z,99.90
2019-05-06T06:01:52.719Z,99.90
2019-05-06T06:04:18.436Z,99.90
2019-05-06T06:06:44.777Z,99.90
2019-05-06T06:09:12.750Z,99.90
2019-05-06T06:11:53.395Z,99.90
2019-05-06T06:14:33.167Z,99.90
2019-05-06T06:17:18.710Z,99.90
2019-05-06T06:20:04.114Z,99.90
2019-05-06T06:22:33.060Z,99.00
2019-05-06T06:24:59.722Z,98.60
2019-05-06T06:27:26.074Z,94.10
2019-05-06T06:29:52.835Z,94.10
2019-05-06T06:32:22.991Z,91.60
2019-05-06T06:35:08.382Z,89.00
2019-05-06T06:37:42.668Z,90.10
2019-05-06T06:40:13.095Z,84.80
2019-05-06T06:42:39.829Z,83.20
2019-05-06T06:45:06.693Z,79.80
2019-05-06T06:47:33.100Z,79.30
2019-05-06T06:49:59.556Z,76.20
2019-05-06T06:52:25.967Z,70.70
2019-05-06T06:54:52.776Z,63.00
2019-05-06T06:57:34.397Z,63.40
2019-05-06T07:00:05.881Z,56.60
2019-05-06T07:02:34.676Z,56.60
2019-05-06T07:05:03.849Z,56.60
2019-05-06T07:07:41.463Z,58.10
2019-05-06T07:09:59.909Z,56.60
2019-05-06T07:12:26.312Z,58.40
2019-05-06T07:14:54.609Z,49.70
2019-05-06T07:17:22.837Z,46.90
2019-05-06T07:20:05.944Z,44.20
2019-05-06T07:22:35.839Z,46.50
2019-05-06T07:25:07.014Z,46.30
2019-05-06T07:27:33.438Z,47.60
2019-05-06T07:29:59.855Z,47.50
2019-05-06T07:32:26.221Z,46.50
2019-05-06T07:34:53.233Z,47.50
2019-05-06T07:37:21.979Z,48.40
2019-05-06T07:39:47.972Z,47.60
2019-05-06T07:42:18.871Z,45.00
2019-05-06T07:44:53.119Z,46.20
2019-05-06T07:47:23.774Z,39.60
2019-05-06T07:49:49.582Z,42.90
2019-05-06T07:52:17.330Z,41.30
2019-05-06T07:54:43.879Z,40.60
2019-05-06T07:57:12.513Z,38.40
2019-05-06T07:59:38.778Z,41.70
2019-05-06T08:02:05.229Z,41.10
2019-05-06T08:04:32.590Z,43.00
2019-05-06T08:06:58.925Z,39.60
2019-05-06T08:09:25.279Z,38.10
2019-05-06T08:11:53.061Z,40.20
2019-05-06T08:14:22.312Z,42.30
2019-05-06T08:16:53.258Z,35.40
2019-05-06T08:19:19.628Z,39.70
2019-05-06T08:21:47.968Z,42.10
2019-05-06T08:24:14.301Z,42.50
2019-05-06T08:26:42.717Z,42.90
2019-05-06T08:29:08.951Z,43.90
2019-05-06T08:31:35.349Z,44.40
2019-05-06T08:34:02.704Z,42.40
2019-05-06T08:36:32.869Z,43.90
2019-05-06T08:39:02.535Z,42.10
2019-05-06T08:41:30.316Z,44.30
2019-05-06T08:43:56.750Z,41.50
2019-05-06T08:46:23.664Z,41.90
2019-05-06T08:48:52.355Z,37.80
2019-05-06T08:51:22.315Z,36.40
2019-05-06T08:53:53.415Z,40.50
2019-05-06T08:56:22.026Z,38.60
2019-05-06T08:58:48.695Z,40.40
2019-05-06T09:01:24.183Z,40.90
2019-05-06T09:04:05.073Z,41.80
2019-05-06T09:06:27.563Z,38.10
2019-05-06T09:08:46.951Z,37.20
2019-05-06T09:11:13.328Z,37.90
2019-05-06T09:13:39.681Z,40.10
2019-05-06T09:16:06.058Z,38.20
2019-05-06T09:18:32.946Z,40.80
2019-05-06T09:20:59.562Z,35.80
2019-05-06T09:23:27.516Z,36.80
2019-05-06T09:25:54.107Z,38.30
2019-05-06T09:28:23.371Z,36.70
2019-05-06T09:30:52.535Z,32.30
2019-05-06T09:33:22.529Z,35.40
2019-05-06T09:35:49.026Z,35.30
2019-05-06T09:38:15.384Z,37.60
2019-05-06T09:40:43.281Z,31.40
2019-05-06T09:43:09.863Z,36.70
2019-05-06T09:45:36.257Z,35.30
2019-05-06T09:48:04.946Z,36.20
2019-05-06T09:50:37.408Z,35.30
2019-05-06T09:53:06.072Z,34.10
2019-05-06T09:55:34.324Z,33.60
2019-05-06T09:58:03.521Z,36.10
2019-05-06T10:00:32.947Z,33.60
2019-05-06T10:02:59.603Z,38.20
2019-05-06T10:05:26.019Z,37.90
2019-05-06T10:07:52.482Z,38.90
2019-05-06T10:10:18.845Z,37.40
2019-05-06T10:12:45.286Z,31.50
2019-05-06T10:15:12.699Z,29.60
2019-05-06T10:17:39.202Z,32.10
2019-05-06T10:20:05.919Z,29.00
2019-05-06T10:22:33.484Z,32.20
2019-05-06T10:25:00.024Z,33.10
2019-05-06T10:27:26.390Z,32.10
2019-05-06T10:29:54.660Z,34.80
2019-05-06T10:32:25.925Z,38.70
2019-05-06T10:34:52.706Z,40.80
2019-05-06T10:37:49.064Z,37.60
2019-05-06T10:40:19.273Z,33.80
2019-05-06T10:43:06.274Z,38.40
2019-05-06T10:45:32.891Z,37.20
2019-05-06T10:47:59.211Z,34.00
2019-05-06T10:50:27.500Z,39.50
2019-05-06T10:53:13.523Z,38.70
2019-05-06T10:55:42.755Z,32.30
2019-05-06T10:58:09.247Z,33.50
2019-05-06T11:00:35.746Z,32.90
2019-05-06T11:03:16.195Z,34.20
2019-05-06T11:05:43.329Z,37.30
2019-05-06T11:08:10.115Z,34.30
2019-05-06T11:10:41.153Z,31.60
2019-05-06T11:13:05.628Z,32.50
2019-05-06T11:15:32.999Z,34.80
2019-05-06T11:18:04.032Z,36.50
2019-05-06T11:20:27.775Z,36.50
2019-05-06T11:22:54.153Z,39.80
2019-05-06T11:25:22.887Z,40.30
2019-05-06T11:27:48.743Z,41.90
2019-05-06T11:30:17.527Z,41.00
2019-05-06T11:33:04.807Z,41.90
2019-05-06T11:35:52.563Z,41.20
2019-05-06T11:38:19.848Z,42.30
2019-05-06T11:40:46.293Z,44.00
2019-05-06T11:43:12.697Z,41.20
2019-05-06T11:45:39.067Z,41.10
2019-05-06T11:48:05.503Z,43.50
2019-05-06T11:50:33.437Z,42.40
2019-05-06T11:53:02.295Z,34.90
2019-05-06T11:55:32.737Z,34.20
2019-05-06T11:57:56.467Z,33.90
2019-05-06T12:00:24.964Z,31.30
2019-05-06T12:02:53.355Z,32.50
2019-05-06T12:05:19.569Z,33.30
2019-05-06T12:08:01.082Z,35.00
2019-05-06T12:10:14.513Z,34.70
2019-05-06T12:12:42.553Z,31.70
2019-05-06T12:15:09.699Z,32.50
2019-05-06T12:17:37.221Z,36.40
2019-05-06T12:20:05.154Z,37.00
2019-05-06T12:22:34.502Z,37.90
2019-05-06T12:25:04.471Z,40.60
2019-05-06T12:27:44.342Z,42.90
2019-05-06T12:30:12.651Z,41.50
2019-05-06T12:32:43.397Z,42.70
2019-05-06T12:35:12.352Z,44.30
2019-05-06T12:37:39.993Z,43.80
2019-05-06T12:40:06.464Z,43.80
2019-05-06T12:42:34.722Z,44.20
2019-05-06T12:45:03.672Z,46.30
2019-05-06T12:47:32.830Z,45.70
2019-05-06T12:50:02.791Z,42.60
2019-05-06T12:52:28.735Z,43.40
2019-05-06T12:55:13.703Z,39.20
2019-05-06T12:57:23.565Z,41.20
2019-05-06T12:59:50.109Z,40.50
2019-05-06T13:02:16.513Z,36.10
2019-05-06T13:04:55.264Z,35.90
2019-05-06T13:07:13.016Z,36.50
2019-05-06T13:09:42.343Z,37.50
2019-05-06T13:12:09.498Z,37.60
2019-05-06T13:14:35.858Z,38.20
2019-05-06T13:17:02.824Z,39.10
2019-05-06T13:19:29.303Z,40.20
2019-05-06T13:21:55.720Z,42.60
2019-05-06T13:24:23.079Z,44.90
2019-05-06T13:26:49.502Z,43.70
2019-05-06T13:29:26.343Z,45.90
2019-05-06T13:31:53.137Z,46.90
2019-05-06T13:34:19.954Z,46.00
2019-05-06T13:36:47.710Z,46.30
2019-05-06T13:39:15.244Z,46.60
2019-05-06T13:41:42.207Z,48.80
2019-05-06T13:44:12.934Z,48.30
2019-05-06T13:46:40.843Z,47.30
2019-05-06T13:49:09.295Z,47.50
2019-05-06T13:51:42.771Z,47.30
2019-05-06T13:54:08.650Z,47.40
2019-05-06T13:56:35.043Z,47.40
2019-05-06T13:59:01.541Z,46.90
2019-05-06T14:01:32.098Z,45.30
2019-05-06T14:03:58.611Z,44.20
2019-05-06T14:06:25.042Z,42.40
2019-05-06T14:08:52.993Z,39.90
2019-05-06T14:11:19.537Z,40.20
2019-05-06T14:13:46.013Z,41.20
2019-05-06T14:16:13.230Z,38.20
2019-05-06T14:18:39.924Z,36.70
2019-05-06T14:21:06.349Z,37.40
2019-05-06T14:23:32.927Z,40.50
2019-05-06T14:26:04.328Z,44.20
2019-05-06T14:28:32.732Z,43.40
2019-05-06T14:31:03.547Z,43.00
2019-05-06T14:33:32.135Z,44.50
2019-05-06T14:35:58.170Z,46.10
2019-05-06T14:38:24.846Z,49.40
2019-05-06T14:41:07.971Z,48.50
2019-05-06T14:43:34.408Z,50.20
2019-05-06T14:46:01.000Z,51.80
2019-05-06T14:48:27.451Z,50.40
2019-05-06T14:50:57.221Z,49.60
2019-05-06T14:53:23.911Z,51.80
2019-05-06T14:55:52.092Z,55.70
2019-05-06T14:58:18.439Z,48.20
2019-05-06T15:00:44.989Z,46.10
2019-05-06T15:03:12.982Z,46.40
2019-05-06T15:05:39.666Z,47.90
2019-05-06T15:08:06.018Z,46.30
2019-05-06T15:10:32.483Z,47.90
2019-05-06T15:12:58.867Z,47.70
2019-05-06T15:15:25.389Z,48.40
2019-05-06T15:17:53.235Z,49.20
2019-05-06T15:20:22.472Z,49.60
2019-05-06T15:22:48.842Z,51.10
2019-05-06T15:25:15.223Z,51.90
2019-05-06T15:27:42.618Z,50.10
2019-05-06T15:30:12.424Z,48.80
2019-05-06T15:32:39.183Z,48.00
2019-05-06T15:35:08.984Z,50.10
2019-05-06T15:37:37.308Z,51.70
2019-05-06T15:40:08.160Z,53.80
2019-05-06T15:42:35.640Z,54.20
2019-05-06T15:45:04.530Z,53.10
2019-05-06T15:47:32.287Z,54.20
2019-05-06T15:49:59.035Z,53.00
2019-05-06T15:52:25.553Z,50.90
2019-05-06T15:54:52.584Z,52.00
2019-05-06T15:57:19.125Z,51.20
2019-05-06T15:59:45.649Z,49.20
2019-05-06T16:02:12.051Z,49.10
2019-05-06T16:04:38.438Z,49.70
2019-05-06T16:07:04.820Z,50.30
2019-05-06T16:09:32.839Z,50.10
2019-05-06T16:11:59.498Z,52.60
2019-05-06T16:14:25.934Z,51.10
2019-05-06T16:16:52.930Z,52.50
2019-05-06T16:19:19.421Z,53.40
2019-05-06T16:21:46.888Z,51.90
2019-05-06T16:24:15.255Z,53.70
2019-05-06T16:26:42.496Z,54.60
2019-05-06T16:29:09.882Z,55.10
2019-05-06T16:31:36.269Z,56.80
2019-05-06T16:34:03.205Z,55.40
2019-05-06T16:36:32.187Z,57.00
2019-05-06T16:38:58.093Z,55.20
2019-05-06T16:41:24.842Z,56.80
2019-05-06T16:43:52.386Z,57.20
2019-05-06T16:46:19.050Z,58.30
2019-05-06T16:48:45.684Z,55.70
2019-05-06T16:51:12.797Z,61.00
2019-05-06T16:53:39.294Z,57.80
2019-05-06T16:56:07.621Z,58.30
2019-05-06T16:58:36.964Z,56.70
2019-05-06T17:01:04.932Z,56.40
2019-05-06T17:03:42.710Z,54.60
2019-05-06T17:06:27.909Z,57.50
2019-05-06T17:08:54.364Z,58.40
2019-05-06T17:11:28.151Z,58.50
2019-05-06T17:13:49.277Z,57.80
2019-05-06T17:16:15.885Z,55.90
2019-05-06T17:18:42.384Z,59.60
2019-05-06T17:21:08.762Z,57.70
2019-05-06T17:23:35.119Z,55.80
2019-05-06T17:26:01.974Z,55.90
2019-05-06T17:28:43.746Z,55.50
2019-05-06T17:31:13.255Z,56.90
2019-05-06T17:33:42.877Z,53.30
2019-05-06T17:36:12.702Z,54.60
2019-05-06T17:38:48.164Z,54.50
2019-05-06T17:41:14.567Z,54.80
2019-05-06T17:43:43.833Z,53.40
2019-05-06T17:46:12.710Z,55.00
2019-05-06T17:48:50.234Z,56.50
2019-05-06T17:51:21.027Z,54.80
2019-05-06T17:53:49.304Z,55.00
2019-05-06T17:56:15.867Z,55.20
2019-05-06T17:58:42.477Z,54.60
2019-05-06T18:01:12.561Z,53.70
2019-05-06T18:03:38.761Z,55.70
2019-05-06T18:06:09.207Z,53.60
2019-05-06T18:08:33.522Z,54.90
2019-05-06T18:11:00.097Z,54.60
2019-05-06T18:13:26.491Z,55.80
2019-05-06T18:15:53.142Z,56.50
2019-05-06T18:18:21.914Z,57.30
2019-05-06T18:20:48.166Z,57.60
2019-05-06T18:23:14.584Z,58.30
2019-05-06T18:25:43.005Z,59.90
2019-05-06T18:28:09.335Z,60.40
2019-05-06T18:30:37.107Z,59.60
2019-05-06T18:33:03.731Z,60.80
2019-05-06T18:35:30.226Z,61.00
2019-05-06T18:37:56.629Z,61.50
2019-05-06T18:40:23.295Z,59.60
2019-05-06T18:42:49.803Z,58.70
2019-05-06T18:45:16.193Z,62.80
2019-05-06T18:47:42.644Z,65.50
2019-05-06T18:50:09.191Z,66.70
2019-05-06T18:52:35.592Z,69.80
2019-05-06T18:55:02.343Z,70.40
2019-05-06T18:57:28.781Z,73.80
2019-05-06T18:59:55.308Z,79.50
2019-05-06T19:02:22.944Z,86.60
2019-05-06T19:04:52.335Z,88.80
2019-05-06T19:07:19.009Z,95.00
2019-05-06T19:10:05.245Z,95.90
2019-05-06T19:12:39.905Z,96.80
2019-05-06T19:15:00.235Z,96.40
2019-05-06T19:17:26.692Z,96.80
2019-05-06T19:19:53.081Z,97.00
2019-05-06T19:22:19.557Z,97.30
2019-05-06T19:24:45.945Z,97.10
2019-05-06T19:27:12.770Z,98.40
2019-05-06T19:29:39.582Z,99.40
2019-05-06T19:32:05.980Z,98.20
2019-05-06T19:34:35.145Z,99.00
2019-05-06T19:37:02.461Z,99.90
2019-05-06T19:39:28.932Z,99.90
2019-05-06T19:41:55.488Z,99.90
2019-05-06T19:44:22.164Z,99.90
2019-05-06T19:46:48.726Z,99.90
2019-05-06T19:49:16.295Z,99.80
2019-05-06T19:51:43.047Z,99.90
2019-05-06T19:54:09.347Z,99.90
2019-05-06T19:56:35.756Z,99.90
2019-05-06T19:59:02.216Z,99.90
2019-05-06T20:01:28.786Z,99.90
2019-05-06T20:03:55.617Z,99.80
2019-05-06T20:06:40.904Z,99.00
2019-05-06T20:09:27.646Z,98.60
2019-05-06T20:11:56.041Z,99.90
2019-05-06T20:14:22.518Z,99.90
2019-05-06T20:16:49.099Z,99.90
2019-05-06T20:19:28.164Z,99.90
2019-05-06T20:21:44.286Z,99.90
2019-05-06T20:24:12.704Z,99.90
2019-05-06T20:26:39.314Z,99.40
2019-05-06T20:29:05.939Z,99.90
2019-05-06T20:31:32.744Z,98.40
2019-05-06T20:33:59.337Z,99.00
2019-05-06T20:36:25.783Z,97.20
2019-05-06T20:38:52.242Z,97.50
2019-05-06T20:41:18.625Z,98.10
2019-05-06T20:43:45.055Z,99.90
2019-05-06T20:46:12.452Z,99.90
2019-05-06T20:48:39.020Z,99.90
2019-05-06T20:51:05.411Z,99.90
2019-05-06T20:53:32.541Z,99.90
2019-05-06T20:55:59.079Z,99.90
2019-05-06T20:58:25.539Z,99.90
2019-05-06T21:00:52.246Z,99.90
2019-05-06T21:03:18.811Z,99.90
2019-05-06T21:05:45.204Z,99.90
2019-05-06T21:08:13.031Z,99.90
2019-05-06T21:10:39.632Z,99.90
2019-05-06T21:13:06.213Z,99.90
2019-05-06T21:15:32.692Z,99.90
2019-05-06T21:18:02.167Z,99.90
2019-05-06T21:20:27.639Z,99.90
2019-05-06T21:22:54.027Z,99.90
2019-05-06T21:25:22.487Z,99.90
2019-05-06T21:27:48.646Z,99.90
2019-05-06T21:30:15.576Z,99.90
2019-05-06T21:32:42.680Z,99.90
2019-05-06T21:35:09.348Z,99.90
2019-05-06T21:37:35.748Z,99.90
2019-05-06T21:40:04.614Z,99.90
2019-05-06T21:42:32.551Z,99.90
2019-05-06T21:44:59.061Z,99.90
2019-05-06T21:47:25.395Z,99.90
2019-05-06T21:49:52.875Z,99.90
2019-05-06T21:52:32.931Z,99.90
2019-05-06T21:54:47.509Z,99.90
2019-05-06T21:57:13.874Z,99.90
2019-05-06T21:59:42.273Z,99.90
2019-05-06T22:02:11.979Z,99.90
2019-05-06T22:04:38.579Z,99.90
2019-05-06T22:07:05.028Z,99.90
2019-05-06T22:09:32.285Z,99.90
2019-05-06T22:11:58.872Z,99.90
2019-05-06T22:14:25.408Z,99.90
2019-05-06T22:16:51.877Z,99.90
2019-05-06T22:19:18.289Z,99.90
2019-05-06T22:21:47.605Z,99.90
2019-05-06T22:24:15.954Z,99.90
2019-05-06T22:26:43.116Z,99.90
2019-05-06T22:29:09.659Z,99.90
2019-05-06T22:31:36.105Z,99.90
2019-05-06T22:34:02.595Z,99.90
2019-05-06T22:36:29.008Z,99.90
2019-05-06T22:38:55.423Z,99.90
2019-05-06T22:41:23.135Z,99.90
2019-05-06T22:43:50.155Z,99.90
2019-05-06T22:46:18.807Z,99.90
2019-05-06T22:48:45.212Z,99.90
2019-05-06T22:51:12.384Z,99.90
2019-05-06T22:53:38.841Z,99.90
2019-05-06T22:56:08.561Z,99.90
2019-05-06T22:58:34.947Z,99.90
2019-05-06T23:01:04.510Z,99.90
2019-05-06T23:03:34.474Z,99.90
2019-05-06T23:06:02.434Z,99.90
2019-05-06T23:08:28.371Z,99.90
2019-05-06T23:10:54.767Z,99.90
2019-05-06T23:13:23.086Z,99.90
2019-05-06T23:15:49.346Z,99.90
2019-05-06T23:18:15.721Z,99.90
2019-05-06T23:20:43.110Z,99.90
2019-05-06T23:23:09.483Z,99.90
2019-05-06T23:25:35.833Z,99.90
2019-05-06T23:28:02.837Z,99.90
2019-05-06T23:30:30.193Z,99.90
2019-05-06T23:32:56.637Z,99.90
2019-05-06T23:35:23.070Z,99.90
2019-05-06T23:38:26.930Z,99.90
2019-05-06T23:41:32.551Z,99.90
2019-05-06T23:44:45.561Z,99.90
2019-05-06T23:47:42.427Z,99.90
2019-05-06T23:50:46.355Z,99.90
2019-05-06T23:53:52.134Z,99.90
2019-05-06T23:56:42.918Z,99.90
2019-05-06T23:59:12.360Z,99.90
